Time;durP1;ratioP1;P1;durP2;ratioP2;P2;SDS_P1;SDS_P2;PMS_P1;PMS_P2;Temp;Humidity;BMP_temperature;BMP_pressure;BME280_temperature;BME280_humidity;BME280_pressure;Samples;Min_cycle;Max_cycle;Signal;HPM_P1;HPM_P2
2022/09/03 00:02:13;;;;;;;;;;;14.60;99.90;;;;;;6155170;23;20332;-87
2022/09/03 00:04:56;;;;;;;;;;;14.70;99.90;;;;;;6155046;23;20325;-87
2022/09/03 00:07:27;;;;;;;;;;;14.80;99.90;;;;;;6130640;23;19910;-87
2022/09/03 00:09:56;;;;;;;;;;;14.90;99.90;;;;;;6154982;23;19931;-87
2022/09/03 00:12:59;;;;;;;;;;;15.00;99.90;;;;;;6154672;23;19911;-88
2022/09/03 00:15:25;;;;;;;;;;;15.00;99.90;;;;;;6130426;23;19915;-87
2022/09/03 00:17:57;;;;;;;;;;;15.00;99.90;;;;;;6130345;23;19907;-87
2022/09/03 00:20:30;;;;;;;;;;;15.10;99.90;;;;;;6154726;23;19915;-88
2022/09/03 00:22:57;;;;;;;;;;;15.10;99.90;;;;;;6130726;23;20318;-87
2022/09/03 00:25:26;;;;;;;;;;;15.10;99.90;;;;;;6155295;23;19904;-86
2022/09/03 00:27:54;;;;;;;;;;;15.10;99.90;;;;;;6155699;23;20313;-87
2022/09/03 00:30:20;;;;;;;;;;;15.10;99.90;;;;;;6130290;23;19905;-87
2022/09/03 00:32:49;;;;;;;;;;;15.20;99.90;;;;;;6130365;23;19905;-86
2022/09/03 00:35:35;;;;;;;;;;;15.20;99.90;;;;;;6129911;23;19909;-85
2022/09/03 00:38:01;;;;;;;;;;;15.20;99.90;;;;;;6155987;23;19956;-88
2022/09/03 00:40:45;;;;;;;;;;;15.20;99.90;;;;;;6130797;23;19909;-86
2022/09/03 00:43:20;;;;;;;;;;;15.20;99.90;;;;;;6130432;23;19936;-87
2022/09/03 00:45:51;;;;;;;;;;;15.20;99.90;;;;;;6155345;23;19904;-86
2022/09/03 00:48:24;;;;;;;;;;;15.20;99.90;;;;;;6130732;23;19908;-87
2022/09/03 00:50:59;;;;;;;;;;;15.20;99.90;;;;;;6131055;23;20233;-87
2022/09/03 00:53:33;;;;;;;;;;;15.20;99.90;;;;;;6154461;23;19915;-87
2022/09/03 00:56:09;;;;;;;;;;;15.20;99.90;;;;;;6154965;23;19904;-88
2022/09/03 00:58:42;;;;;;;;;;;15.20;99.90;;;;;;6155286;23;19974;-87
2022/09/03 01:01:19;;;;;;;;;;;15.20;99.90;;;;;;6130051;23;19995;-87
2022/09/03 01:03:53;;;;;;;;;;;15.20;99.90;;;;;;6130336;23;20322;-87
2022/09/03 01:06:23;;;;;;;;;;;15.20;99.90;;;;;;6130547;23;19964;-87
2022/09/03 01:08:55;;;;;;;;;;;15.20;99.90;;;;;;6156125;23;19911;-87
2022/09/03 01:11:46;;;;;;;;;;;15.20;99.90;;;;;;6129797;23;19905;-87
2022/09/03 01:14:11;;;;;;;;;;;15.20;99.90;;;;;;6130264;23;20507;-86
2022/09/03 01:16:55;;;;;;;;;;;15.10;99.90;;;;;;6155227;23;19983;-87
2022/09/03 01:19:26;;;;;;;;;;;15.10;99.90;;;;;;6130579;23;19952;-87
2022/09/03 01:22:27;;;;;;;;;;;15.10;99.90;;;;;;6131144;23;19912;-86
2022/09/03 01:24:57;;;;;;;;;;;15.00;99.90;;;;;;6071098;23;20354;-86
2022/09/03 01:27:24;;;;;;;;;;;14.90;99.90;;;;;;6114752;23;19905;-87
2022/09/03 01:30:02;;;;;;;;;;;14.90;99.90;;;;;;6130985;23;19943;-86
2022/09/03 01:32:43;;;;;;;;;;;14.90;99.90;;;;;;6132710;23;19905;-88
2022/09/03 01:35:25;;;;;;;;;;;14.90;99.90;;;;;;6131997;23;19931;-87
2022/09/03 01:38:02;;;;;;;;;;;14.90;99.90;;;;;;6156710;23;19904;-87
2022/09/03 01:40:27;;;;;;;;;;;14.90;99.90;;;;;;6132722;23;19915;-86
2022/09/03 01:42:59;;;;;;;;;;;14.90;99.90;;;;;;6132718;23;19904;-88
2022/09/03 01:45:45;;;;;;;;;;;14.90;99.90;;;;;;6157133;23;20582;-87
2022/09/03 01:48:29;;;;;;;;;;;14.90;99.90;;;;;;6132377;23;19939;-87
2022/09/03 01:50:58;;;;;;;;;;;14.80;99.90;;;;;;6131829;23;19905;-88
2022/09/03 01:53:39;;;;;;;;;;;14.80;99.90;;;;;;6130233;23;19991;-87
2022/09/03 01:56:36;;;;;;;;;;;14.80;99.90;;;;;;6132478;23;20241;-87
2022/09/03 01:59:05;;;;;;;;;;;14.80;99.90;;;;;;6156560;23;19908;-87
2022/09/03 02:01:44;;;;;;;;;;;14.80;99.90;;;;;;6131989;23;20233;-87
2022/09/03 02:04:15;;;;;;;;;;;14.80;99.90;;;;;;6130769;23;20421;-89
2022/09/03 02:06:41;;;;;;;;;;;14.80;99.90;;;;;;6156049;23;19905;-87
2022/09/03 02:09:07;;;;;;;;;;;14.80;99.90;;;;;;6131783;23;19939;-87
2022/09/03 02:11:32;;;;;;;;;;;14.70;99.90;;;;;;6155863;23;19912;-88
2022/09/03 02:13:59;;;;;;;;;;;14.70;99.90;;;;;;6131459;23;19901;-88
2022/09/03 02:16:27;;;;;;;;;;;14.70;99.90;;;;;;6131575;23;19974;-87
2022/09/03 02:18:54;;;;;;;;;;;14.70;99.90;;;;;;6131944;23;19943;-87
2022/09/03 02:21:21;;;;;;;;;;;14.70;99.90;;;;;;6156615;23;20236;-87
2022/09/03 02:24:21;;;;;;;;;;;14.70;99.90;;;;;;6157781;23;19932;-86
2022/09/03 02:26:46;;;;;;;;;;;14.70;99.90;;;;;;6156403;23;20395;-87
2022/09/03 02:29:24;;;;;;;;;;;14.60;99.90;;;;;;6156396;23;19911;-87
2022/09/03 02:31:50;;;;;;;;;;;14.60;99.90;;;;;;6131695;23;19991;-86
2022/09/03 02:34:16;;;;;;;;;;;14.60;99.90;;;;;;6131229;23;19991;-87
2022/09/03 02:36:44;;;;;;;;;;;14.60;99.90;;;;;;6158040;23;19959;-88
2022/09/03 02:39:10;;;;;;;;;;;14.60;99.90;;;;;;6131812;23;20364;-87
2022/09/03 02:41:36;;;;;;;;;;;14.60;99.90;;;;;;6154994;23;19911;-88
2022/09/03 02:44:12;;;;;;;;;;;14.60;99.90;;;;;;6155360;23;19944;-87
2022/09/03 02:46:43;;;;;;;;;;;14.60;99.90;;;;;;6156092;23;19904;-88
2022/09/03 02:49:09;;;;;;;;;;;14.50;99.90;;;;;;6155939;23;19911;-88
2022/09/03 02:51:36;;;;;;;;;;;14.50;99.90;;;;;;6131270;23;19908;-88
2022/09/03 02:54:01;;;;;;;;;;;14.60;99.90;;;;;;6155936;23;20228;-87
2022/09/03 02:56:27;;;;;;;;;;;14.50;99.90;;;;;;6156275;23;19984;-88
2022/09/03 02:58:53;;;;;;;;;;;14.50;99.90;;;;;;6155965;23;19984;-88
2022/09/03 03:01:19;;;;;;;;;;;14.50;99.90;;;;;;6156133;23;20328;-87
2022/09/03 03:03:44;;;;;;;;;;;14.60;99.90;;;;;;6131401;23;19939;-86
2022/09/03 03:06:11;;;;;;;;;;;14.60;99.90;;;;;;6131451;23;19904;-87
2022/09/03 03:08:36;;;;;;;;;;;14.50;99.90;;;;;;6155600;23;19904;-87
2022/09/03 03:11:02;;;;;;;;;;;14.50;99.90;;;;;;6131109;23;19931;-88
2022/09/03 03:13:28;;;;;;;;;;;14.50;99.90;;;;;;6131384;23;19915;-87
2022/09/03 03:15:58;;;;;;;;;;;14.50;99.90;;;;;;6155590;23;19934;-86
2022/09/03 03:18:23;;;;;;;;;;;14.50;99.90;;;;;;6155624;23;19904;-88
2022/09/03 03:20:49;;;;;;;;;;;14.40;99.90;;;;;;6155996;23;20011;-87
2022/09/03 03:23:15;;;;;;;;;;;14.40;99.90;;;;;;6131041;23;19905;-88
2022/09/03 03:25:41;;;;;;;;;;;14.40;99.90;;;;;;6156126;23;19905;-88
2022/09/03 03:28:06;;;;;;;;;;;14.40;99.90;;;;;;6155469;23;20374;-88
2022/09/03 03:30:33;;;;;;;;;;;14.40;99.90;;;;;;6130817;23;20210;-87
2022/09/03 03:32:58;;;;;;;;;;;14.40;99.90;;;;;;6130828;23;19955;-86
2022/09/03 03:35:24;;;;;;;;;;;14.40;99.90;;;;;;6157038;23;20689;-87
2022/09/03 03:37:49;;;;;;;;;;;14.30;99.90;;;;;;6155796;23;19904;-87
2022/09/03 03:40:15;;;;;;;;;;;14.30;99.90;;;;;;6130891;23;20244;-87
2022/09/03 03:42:41;;;;;;;;;;;14.20;99.90;;;;;;6157082;23;19915;-88
2022/09/03 03:45:08;;;;;;;;;;;14.20;99.90;;;;;;6155694;23;19905;-87
2022/09/03 03:47:35;;;;;;;;;;;14.20;99.90;;;;;;6131030;23;19915;-87
2022/09/03 03:50:00;;;;;;;;;;;14.10;99.90;;;;;;6155130;23;19960;-87
2022/09/03 03:52:26;;;;;;;;;;;14.10;99.90;;;;;;6155344;23;20322;-88
2022/09/03 03:54:52;;;;;;;;;;;14.10;99.90;;;;;;6155149;23;19905;-87
2022/09/03 03:57:18;;;;;;;;;;;14.10;99.90;;;;;;6157237;23;19915;-87
2022/09/03 03:59:44;;;;;;;;;;;14.10;99.90;;;;;;6155673;23;19982;-88
2022/09/03 04:02:10;;;;;;;;;;;14.10;99.90;;;;;;6131623;23;19920;-86
2022/09/03 04:04:36;;;;;;;;;;;14.10;99.90;;;;;;6155634;23;19908;-87
2022/09/03 04:07:01;;;;;;;;;;;14.10;99.90;;;;;;6155984;23;20636;-87
2022/09/03 04:09:27;;;;;;;;;;;14.10;99.90;;;;;;6131004;23;19909;-87
2022/09/03 04:11:53;;;;;;;;;;;14.10;99.90;;;;;;6130161;23;20027;-87
2022/09/03 04:14:18;;;;;;;;;;;14.10;99.90;;;;;;6130960;23;20314;-87
2022/09/03 04:16:45;;;;;;;;;;;14.10;99.90;;;;;;6155388;23;19959;-87
2022/09/03 04:19:11;;;;;;;;;;;14.10;99.90;;;;;;6130845;23;19951;-87
2022/09/03 04:21:37;;;;;;;;;;;14.00;99.90;;;;;;6155701;23;20289;-87
2022/09/03 04:24:03;;;;;;;;;;;14.00;99.90;;;;;;6130148;23;19905;-88
2022/09/03 04:26:30;;;;;;;;;;;14.10;99.90;;;;;;6155537;23;20345;-86
2022/09/03 04:28:56;;;;;;;;;;;14.10;99.90;;;;;;6130971;23;19912;-88
2022/09/03 04:31:21;;;;;;;;;;;14.10;99.90;;;;;;6155517;23;19905;-88
2022/09/03 04:33:59;;;;;;;;;;;14.10;99.90;;;;;;6154468;23;19983;-88
2022/09/03 04:36:27;;;;;;;;;;;14.10;99.90;;;;;;6156215;23;20321;-86
2022/09/03 04:38:53;;;;;;;;;;;14.10;99.90;;;;;;6130401;23;19915;-87
2022/09/03 04:41:20;;;;;;;;;;;14.10;99.90;;;;;;6156888;23;20281;-88
2022/09/03 04:43:47;;;;;;;;;;;14.10;99.90;;;;;;6130373;23;19900;-90
2022/09/03 04:46:13;;;;;;;;;;;14.10;99.90;;;;;;6156220;23;19905;-90
2022/09/03 04:48:39;;;;;;;;;;;14.10;99.90;;;;;;6131759;23;19904;-90
2022/09/03 04:51:12;;;;;;;;;;;14.10;99.90;;;;;;6132068;23;19912;-90
2022/09/03 04:53:39;;;;;;;;;;;14.10;99.90;;;;;;6131671;23;19967;-90
2022/09/03 04:56:15;;;;;;;;;;;14.10;99.90;;;;;;6131229;23;20313;-89
2022/09/03 04:58:42;;;;;;;;;;;14.10;99.90;;;;;;6156308;23;19931;-91
2022/09/03 05:01:16;;;;;;;;;;;14.10;99.90;;;;;;6131821;23;20244;-91
2022/09/03 05:03:42;;;;;;;;;;;14.10;99.90;;;;;;6131313;23;19910;-90
2022/09/03 05:06:08;;;;;;;;;;;14.10;99.90;;;;;;6132960;23;19987;-92
2022/09/03 05:08:35;;;;;;;;;;;14.20;99.90;;;;;;6133872;23;19953;-90
2022/09/03 05:11:01;;;;;;;;;;;14.20;99.90;;;;;;6133560;23;19904;-90
2022/09/03 05:13:27;;;;;;;;;;;14.10;99.90;;;;;;6158003;23;20330;-90
2022/09/03 05:16:00;;;;;;;;;;;14.20;99.90;;;;;;6157465;23;19955;-90
2022/09/03 05:18:25;;;;;;;;;;;14.10;99.90;;;;;;6133003;23;19932;-89
2022/09/03 05:21:01;;;;;;;;;;;14.10;99.90;;;;;;6133511;23;19908;-89
2022/09/03 05:23:27;;;;;;;;;;;14.10;99.90;;;;;;6157800;23;19904;-88
2022/09/03 05:25:57;;;;;;;;;;;14.10;99.90;;;;;;6157830;23;19904;-88
2022/09/03 05:28:26;;;;;;;;;;;14.20;99.90;;;;;;6160490;23;19909;-87
2022/09/03 05:31:06;;;;;;;;;;;14.20;99.90;;;;;;6199319;23;19915;-88
2022/09/03 05:33:47;;;;;;;;;;;14.20;99.90;;;;;;6216992;23;19904;-89
2022/09/03 05:36:14;;;;;;;;;;;14.20;99.90;;;;;;6217228;23;19912;-87
2022/09/03 05:38:41;;;;;;;;;;;14.30;99.90;;;;;;6215566;23;19907;-88
2022/09/03 05:41:07;;;;;;;;;;;14.30;99.90;;;;;;6187414;23;19900;-88
2022/09/03 05:43:41;;;;;;;;;;;14.30;99.90;;;;;;6216492;23;19957;-88
2022/09/03 05:46:08;;;;;;;;;;;14.20;99.90;;;;;;6190613;23;19907;-89
2022/09/03 05:48:35;;;;;;;;;;;14.10;99.90;;;;;;6185591;23;19900;-89
2022/09/03 05:51:01;;;;;;;;;;;13.90;99.90;;;;;;6190429;23;20275;-88
2022/09/03 05:53:27;;;;;;;;;;;13.70;99.90;;;;;;6215394;23;19906;-89
2022/09/03 05:56:00;;;;;;;;;;;13.50;99.90;;;;;;6188709;23;19903;-88
2022/09/03 05:58:29;;;;;;;;;;;13.30;99.90;;;;;;6190131;23;19904;-89
2022/09/03 06:00:55;;;;;;;;;;;13.20;99.90;;;;;;6189215;23;19910;-88
2022/09/03 06:03:21;;;;;;;;;;;13.10;99.90;;;;;;6214976;23;19903;-87
2022/09/03 06:06:06;;;;;;;;;;;13.10;99.90;;;;;;6215878;23;19908;-88
2022/09/03 06:08:32;;;;;;;;;;;13.00;99.90;;;;;;6189996;23;19904;-88
2022/09/03 06:10:58;;;;;;;;;;;12.90;99.90;;;;;;6215984;23;19958;-87
2022/09/03 06:13:23;;;;;;;;;;;12.80;99.90;;;;;;6188803;23;19936;-88
2022/09/03 06:15:59;;;;;;;;;;;12.80;99.90;;;;;;6190490;23;19911;-88
2022/09/03 06:18:26;;;;;;;;;;;12.80;99.90;;;;;;6191824;23;19987;-87
2022/09/03 06:20:55;;;;;;;;;;;12.80;99.90;;;;;;6215301;23;20208;-87
2022/09/03 06:23:21;;;;;;;;;;;12.70;99.90;;;;;;6190356;23;19907;-88
2022/09/03 06:25:58;;;;;;;;;;;12.80;99.90;;;;;;6190585;23;19910;-88
2022/09/03 06:28:26;;;;;;;;;;;12.80;99.90;;;;;;6216271;23;19904;-91
2022/09/03 06:30:51;;;;;;;;;;;12.80;99.90;;;;;;6192141;23;20315;-88
2022/09/03 06:33:17;;;;;;;;;;;12.90;99.90;;;;;;6193449;23;19915;-87
2022/09/03 06:35:46;;;;;;;;;;;12.80;99.90;;;;;;6193145;23;19919;-86
2022/09/03 06:38:12;;;;;;;;;;;12.80;99.90;;;;;;6193449;23;19944;-85
2022/09/03 06:40:38;;;;;;;;;;;12.80;99.90;;;;;;6192230;23;19907;-86
2022/09/03 06:43:04;;;;;;;;;;;12.90;99.90;;;;;;6191468;23;19900;-87
2022/09/03 06:45:30;;;;;;;;;;;13.00;99.90;;;;;;6192648;23;19904;-87
2022/09/03 06:47:55;;;;;;;;;;;13.20;99.90;;;;;;6191339;23;19904;-87
2022/09/03 06:50:28;;;;;;;;;;;13.40;99.90;;;;;;6189842;23;19947;-87
2022/09/03 06:52:54;;;;;;;;;;;13.60;99.90;;;;;;6191205;23;19904;-87
2022/09/03 06:55:21;;;;;;;;;;;13.90;99.90;;;;;;6190421;23;19925;-87
2022/09/03 06:57:47;;;;;;;;;;;14.10;99.90;;;;;;6190640;23;20323;-87
2022/09/03 07:00:13;;;;;;;;;;;14.40;99.90;;;;;;6214891;23;19915;-88
2022/09/03 07:02:47;;;;;;;;;;;14.60;99.90;;;;;;6189770;23;19904;-87
2022/09/03 07:05:13;;;;;;;;;;;14.80;99.90;;;;;;6191723;23;19918;-88
2022/09/03 07:07:39;;;;;;;;;;;15.10;99.90;;;;;;6190324;23;20282;-89
2022/09/03 07:10:05;;;;;;;;;;;15.50;99.90;;;;;;6213810;23;19994;-88
2022/09/03 07:12:36;;;;;;;;;;;16.10;99.90;;;;;;6214594;23;19926;-89
2022/09/03 07:15:04;;;;;;;;;;;16.40;99.90;;;;;;6190032;23;20002;-89
2022/09/03 07:17:30;;;;;;;;;;;17.00;99.90;;;;;;6213499;23;19911;-88
2022/09/03 07:19:55;;;;;;;;;;;17.10;99.90;;;;;;6215065;23;19926;-91
2022/09/03 07:22:21;;;;;;;;;;;17.30;99.90;;;;;;6190190;23;19966;-88
2022/09/03 07:24:47;;;;;;;;;;;17.20;99.90;;;;;;6189264;23;19963;-89
2022/09/03 07:27:12;;;;;;;;;;;17.20;99.90;;;;;;6214418;23;19916;-89
2022/09/03 07:29:38;;;;;;;;;;;17.20;99.90;;;;;;6188542;23;19919;-89
2022/09/03 07:32:06;;;;;;;;;;;17.40;99.90;;;;;;6190493;23;19908;-89
2022/09/03 07:34:34;;;;;;;;;;;17.40;99.90;;;;;;6213786;23;19914;-86
2022/09/03 07:37:00;;;;;;;;;;;17.60;99.90;;;;;;6188469;23;19908;-89
2022/09/03 07:39:25;;;;;;;;;;;17.70;99.90;;;;;;6213861;23;19908;-86
2022/09/03 07:41:51;;;;;;;;;;;17.50;99.90;;;;;;6221713;23;19928;-89
2022/09/03 07:44:18;;;;;;;;;;;17.40;99.90;;;;;;6204326;23;19950;-89
2022/09/03 07:46:48;;;;;;;;;;;17.20;99.90;;;;;;6190854;23;19903;-88
2022/09/03 07:49:14;;;;;;;;;;;17.00;99.90;;;;;;6215209;23;19912;-88
2022/09/03 07:51:40;;;;;;;;;;;16.70;99.90;;;;;;6215873;23;20236;-88
2022/09/03 07:54:08;;;;;;;;;;;16.40;99.90;;;;;;6191937;23;19912;-87
2022/09/03 07:56:42;;;;;;;;;;;16.10;99.90;;;;;;6193576;23;19954;-88
2022/09/03 07:59:08;;;;;;;;;;;15.60;99.90;;;;;;6191304;23;19904;-90
2022/09/03 08:01:34;;;;;;;;;;;15.20;99.90;;;;;;6191065;23;20220;-90
2022/09/03 08:04:00;;;;;;;;;;;14.90;99.90;;;;;;6213918;23;19908;-90
2022/09/03 08:06:27;;;;;;;;;;;14.60;99.90;;;;;;6191221;23;19985;-92
2022/09/03 08:09:00;;;;;;;;;;;14.50;99.90;;;;;;6190227;23;19931;-90
2022/09/03 08:11:39;;;;;;;;;;;14.30;99.90;;;;;;6191905;23;19952;-88
2022/09/03 08:14:06;;;;;;;;;;;14.20;99.90;;;;;;6196635;23;19903;-88
2022/09/03 08:16:38;;;;;;;;;;;14.30;99.90;;;;;;6198395;23;19938;-89
2022/09/03 08:19:04;;;;;;;;;;;14.30;99.90;;;;;;6194234;23;19912;-90
2022/09/03 08:21:30;;;;;;;;;;;14.50;99.90;;;;;;6218423;23;19943;-90
2022/09/03 08:24:01;;;;;;;;;;;14.80;99.90;;;;;;6218764;23;19947;-90
2022/09/03 08:26:34;;;;;;;;;;;15.10;99.90;;;;;;6194684;23;19923;-90
2022/09/03 08:29:00;;;;;;;;;;;15.40;99.90;;;;;;6193348;23;19943;-90
2022/09/03 08:31:26;;;;;;;;;;;15.80;99.90;;;;;;6192202;23;19915;-89
2022/09/03 08:33:53;;;;;;;;;;;15.90;99.90;;;;;;6218202;23;20005;-90
2022/09/03 08:36:21;;;;;;;;;;;15.80;99.90;;;;;;6194673;23;19904;-89
2022/09/03 08:38:55;;;;;;;;;;;15.80;99.90;;;;;;6192998;23;19958;-88
2022/09/03 08:41:35;;;;;;;;;;;15.90;99.90;;;;;;6194250;23;19935;-88
2022/09/03 08:44:19;;;;;;;;;;;16.10;99.90;;;;;;6197098;23;19927;-88
2022/09/03 08:47:03;;;;;;;;;;;16.40;99.90;;;;;;6192846;23;19904;-88
2022/09/03 08:49:45;;;;;;;;;;;16.80;99.90;;;;;;6217561;23;19914;-89
2022/09/03 08:52:26;;;;;;;;;;;17.00;99.90;;;;;;6218109;23;20625;-90
2022/09/03 08:54:57;;;;;;;;;;;16.80;99.90;;;;;;6217148;23;19908;-88
2022/09/03 08:57:36;;;;;;;;;;;16.30;99.90;;;;;;6194583;23;19958;-90
2022/09/03 09:00:03;;;;;;;;;;;15.80;99.90;;;;;;6195174;23;19908;-90
2022/09/03 09:02:43;;;;;;;;;;;15.40;99.90;;;;;;6193902;23;19900;-90
2022/09/03 09:05:23;;;;;;;;;;;15.10;99.90;;;;;;6192319;23;20316;-88
2022/09/03 09:07:52;;;;;;;;;;;15.00;99.90;;;;;;6191941;23;19907;-89
2022/09/03 09:10:20;;;;;;;;;;;15.00;99.90;;;;;;6190252;23;20616;-86
2022/09/03 09:12:52;;;;;;;;;;;14.80;99.90;;;;;;6190891;23;19978;-87
2022/09/03 09:15:27;;;;;;;;;;;14.80;99.90;;;;;;6191897;23;19904;-87
2022/09/03 09:17:53;;;;;;;;;;;14.60;99.90;;;;;;6190218;23;19939;-89
2022/09/03 09:20:34;;;;;;;;;;;14.40;99.90;;;;;;6178102;23;19913;-89
2022/09/03 09:23:05;;;;;;;;;;;14.20;99.90;;;;;;6149478;23;19948;-89
2022/09/03 09:25:31;;;;;;;;;;;14.00;99.90;;;;;;6143679;23;19904;-87
2022/09/03 09:28:17;;;;;;;;;;;14.00;99.90;;;;;;6173088;23;19904;-89
2022/09/03 09:30:44;;;;;;;;;;;14.00;99.90;;;;;;6142615;23;19908;-89
2022/09/03 09:33:10;;;;;;;;;;;14.00;99.90;;;;;;6159356;23;20419;-89
2022/09/03 09:35:44;;;;;;;;;;;14.00;99.90;;;;;;6136009;23;19905;-89
2022/09/03 09:38:10;;;;;;;;;;;14.00;99.90;;;;;;6134741;23;20243;-89
2022/09/03 09:40:43;;;;;;;;;;;13.90;99.90;;;;;;6135550;23;19991;-88
2022/09/03 09:43:20;;;;;;;;;;;13.90;99.90;;;;;;6136260;23;19904;-89
2022/09/03 09:45:48;;;;;;;;;;;13.90;99.90;;;;;;6133957;23;19928;-87
2022/09/03 09:48:20;;;;;;;;;;;13.90;99.90;;;;;;6161696;23;19927;-87
2022/09/03 09:50:46;;;;;;;;;;;13.80;99.90;;;;;;6162056;23;19967;-89
2022/09/03 09:53:21;;;;;;;;;;;13.70;99.90;;;;;;6139544;23;19901;-90
2022/09/03 09:55:51;;;;;;;;;;;13.70;99.90;;;;;;6139211;23;19904;-90
2022/09/03 09:58:35;;;;;;;;;;;13.80;99.90;;;;;;6139691;23;19905;-90
2022/09/03 10:01:11;;;;;;;;;;;13.80;99.90;;;;;;6139100;23;19920;-90
2022/09/03 10:03:40;;;;;;;;;;;13.90;99.90;;;;;;6139476;23;19927;-90
2022/09/03 10:09:10;;;;;;;;;;;14.50;99.90;;;;;;6163638;23;19959;-92
2022/09/03 10:11:39;;;;;;;;;;;14.80;99.90;;;;;;6140264;23;19908;-91
2022/09/03 10:14:08;;;;;;;;;;;15.00;99.90;;;;;;6143064;23;20324;-90
2022/09/03 10:16:47;;;;;;;;;;;15.40;99.90;;;;;;6167333;23;19982;-89
2022/09/03 10:19:21;;;;;;;;;;;15.70;99.90;;;;;;6138703;23;19905;-91
2022/09/03 10:21:47;;;;;;;;;;;15.80;99.90;;;;;;6136814;23;19909;-90
2022/09/03 10:24:29;;;;;;;;;;;15.90;99.90;;;;;;6138278;23;19911;-90
2022/09/03 10:26:54;;;;;;;;;;;16.30;99.90;;;;;;6133285;23;19911;-89
2022/09/03 10:29:21;;;;;;;;;;;17.00;99.90;;;;;;6132489;23;20516;-88
2022/09/03 10:31:52;;;;;;;;;;;17.50;99.90;;;;;;6132611;23;20020;-88
2022/09/03 10:34:43;;;;;;;;;;;17.90;99.90;;;;;;6134448;23;19912;-89
2022/09/03 10:37:21;;;;;;;;;;;18.00;99.90;;;;;;6155456;23;19944;-89
2022/09/03 10:39:53;;;;;;;;;;;18.20;99.90;;;;;;6132986;23;19983;-89
2022/09/03 10:42:20;;;;;;;;;;;18.30;99.90;;;;;;6130998;23;19908;-89
2022/09/03 10:44:59;;;;;;;;;;;18.30;99.90;;;;;;6158058;23;19920;-88
2022/09/03 10:47:31;;;;;;;;;;;18.50;99.90;;;;;;6132174;23;19908;-90
2022/09/03 10:49:57;;;;;;;;;;;19.00;99.90;;;;;;6156619;23;19912;-90
2022/09/03 10:52:29;;;;;;;;;;;19.60;99.90;;;;;;6131543;23;19901;-87
2022/09/03 10:55:01;;;;;;;;;;;19.80;99.90;;;;;;6154275;23;19904;-88
2022/09/03 10:57:27;;;;;;;;;;;19.90;99.90;;;;;;6131469;23;19909;-88
2022/09/03 11:00:19;;;;;;;;;;;20.00;99.90;;;;;;6130168;23;19988;-89
2022/09/03 11:02:44;;;;;;;;;;;20.10;99.90;;;;;;6149519;23;19932;-90
2022/09/03 11:05:15;;;;;;;;;;;20.30;99.90;;;;;;6129798;23;20420;-89
2022/09/03 11:07:43;;;;;;;;;;;20.50;99.90;;;;;;6130663;23;19932;-89
2022/09/03 11:10:25;;;;;;;;;;;20.60;99.90;;;;;;6131697;23;20335;-89
2022/09/03 11:13:01;;;;;;;;;;;20.90;99.90;;;;;;6131586;23;19904;-90
2022/09/03 11:15:31;;;;;;;;;;;21.40;99.90;;;;;;6154337;23;20272;-88
2022/09/03 11:18:15;;;;;;;;;;;21.70;99.90;;;;;;6154699;23;20215;-89
2022/09/03 11:20:41;;;;;;;;;;;21.70;99.90;;;;;;6131363;23;19905;-89
2022/09/03 11:23:08;;;;;;;;;;;21.60;99.90;;;;;;6131516;23;19992;-89
2022/09/03 11:25:36;;;;;;;;;;;22.10;99.90;;;;;;6155922;23;19908;-89
2022/09/03 11:28:10;;;;;;;;;;;22.70;99.90;;;;;;6131914;23;19913;-89
2022/09/03 11:30:36;;;;;;;;;;;23.20;99.90;;;;;;6156052;23;19913;-89
2022/09/03 11:33:06;;;;;;;;;;;23.20;99.90;;;;;;6132855;23;20303;-86
2022/09/03 11:35:32;;;;;;;;;;;23.10;99.90;;;;;;6157230;23;19904;-89
2022/09/03 11:37:58;;;;;;;;;;;23.70;99.90;;;;;;6156767;23;19904;-88
2022/09/03 11:40:41;;;;;;;;;;;24.30;99.90;;;;;;6156339;23;20243;-88
2022/09/03 11:43:27;;;;;;;;;;;24.10;99.90;;;;;;6155615;23;19932;-89
2022/09/03 11:46:01;;;;;;;;;;;24.20;99.90;;;;;;6155306;23;19979;-88
2022/09/03 11:48:37;;;;;;;;;;;24.10;99.90;;;;;;6156261;23;19955;-88
2022/09/03 11:51:30;;;;;;;;;;;23.80;99.90;;;;;;6158418;23;20354;-87
2022/09/03 11:54:22;;;;;;;;;;;24.30;99.90;;;;;;6158161;23;19932;-89
2022/09/03 11:56:50;;;;;;;;;;;24.90;99.90;;;;;;6132714;23;19904;-91
2022/09/03 11:59:25;;;;;;;;;;;24.40;99.90;;;;;;6137780;23;19973;-89
2022/09/03 12:01:57;;;;;;;;;;;24.70;99.90;;;;;;6159702;23;19901;-89
2022/09/03 12:04:36;;;;;;;;;;;24.90;99.90;;;;;;6130581;23;19905;-88
2022/09/03 12:07:08;;;;;;;;;;;25.00;99.90;;;;;;6131084;23;19912;-90
2022/09/03 12:10:05;;;;;;;;;;;25.50;99.90;;;;;;6130531;23;19912;-88
2022/09/03 12:12:45;;;;;;;;;;;25.70;99.90;;;;;;6133304;23;19916;-88
2022/09/03 12:15:27;;;;;;;;;;;25.40;99.90;;;;;;6158687;23;19909;-90
2022/09/03 12:20:41;;;;;;;;;;;25.00;99.90;;;;;;6158881;23;19913;-87
2022/09/03 12:23:09;;;;;;;;;;;24.80;99.90;;;;;;6131262;23;19944;-89
2022/09/03 12:25:46;;;;;;;;;;;24.20;99.90;;;;;;6133371;23;19909;-89
2022/09/03 12:28:15;;;;;;;;;;;24.10;99.90;;;;;;6156081;23;19915;-88
2022/09/03 12:30:41;;;;;;;;;;;23.70;99.90;;;;;;6156746;23;19909;-88
2022/09/03 12:33:09;;;;;;;;;;;23.10;99.90;;;;;;6133022;23;19958;-87
2022/09/03 12:35:54;;;;;;;;;;;23.00;99.90;;;;;;6133285;23;19908;-88
2022/09/03 12:38:35;;;;;;;;;;;23.00;99.90;;;;;;6132060;23;19912;-88
2022/09/03 12:41:01;;;;;;;;;;;22.60;99.90;;;;;;6156801;23;19904;-88
2022/09/03 12:43:28;;;;;;;;;;;22.50;99.90;;;;;;6156784;23;19955;-87
2022/09/03 12:45:53;;;;;;;;;;;22.40;99.90;;;;;;6158656;23;19905;-89
2022/09/03 12:48:20;;;;;;;;;;;22.40;99.90;;;;;;6133096;23;19980;-88
2022/09/03 12:50:59;;;;;;;;;;;22.40;99.90;;;;;;6158748;23;19919;-87
2022/09/03 12:53:25;;;;;;;;;;;22.90;99.90;;;;;;6132428;23;19915;-87
2022/09/03 12:55:52;;;;;;;;;;;23.10;99.90;;;;;;6159982;23;19928;-88
2022/09/03 12:58:18;;;;;;;;;;;23.00;99.90;;;;;;6134534;23;20346;-89
2022/09/03 13:00:55;;;;;;;;;;;23.10;99.90;;;;;;6153332;23;19908;-87
2022/09/03 13:03:28;;;;;;;;;;;23.20;99.90;;;;;;6157275;23;20268;-89
2022/09/03 13:05:56;;;;;;;;;;;23.40;99.90;;;;;;6133160;23;19905;-88
2022/09/03 13:08:27;;;;;;;;;;;23.50;99.90;;;;;;6134794;23;19946;-88
2022/09/03 13:10:55;;;;;;;;;;;23.30;99.90;;;;;;6134876;23;19994;-88
2022/09/03 13:13:22;;;;;;;;;;;23.40;99.90;;;;;;6134323;23;19928;-89
2022/09/03 13:16:04;;;;;;;;;;;23.70;99.90;;;;;;6132703;23;20377;-87
2022/09/03 13:18:35;;;;;;;;;;;24.40;99.90;;;;;;6168709;23;19924;-86
2022/09/03 13:21:06;;;;;;;;;;;24.20;99.90;;;;;;6163296;23;19913;-88
2022/09/03 13:24:02;;;;;;;;;;;23.30;99.90;;;;;;6158175;23;19923;-88
2022/09/03 13:26:52;;;;;;;;;;;22.80;99.90;;;;;;6054290;23;19988;-87
2022/09/03 13:29:30;;;;;;;;;;;22.80;99.90;;;;;;6135974;23;19912;-87
2022/09/03 13:32:04;;;;;;;;;;;23.00;99.90;;;;;;6159661;23;19908;-88
2022/09/03 13:34:34;;;;;;;;;;;23.10;99.90;;;;;;6158287;23;19908;-88
2022/09/03 13:37:18;;;;;;;;;;;23.00;99.90;;;;;;6135552;23;19980;-88
2022/09/03 13:40:04;;;;;;;;;;;22.50;99.90;;;;;;6157332;23;19908;-88
2022/09/03 13:42:32;;;;;;;;;;;22.30;99.90;;;;;;6157954;23;19980;-88
2022/09/03 13:45:04;;;;;;;;;;;22.10;99.90;;;;;;6131196;23;20257;-88
2022/09/03 13:50:36;;;;;;;;;;;21.90;99.90;;;;;;6155881;23;19967;-87
2022/09/03 13:53:09;;;;;;;;;;;21.70;99.90;;;;;;6156035;23;19941;-88
2022/09/03 13:56:08;;;;;;;;;;;21.70;99.90;;;;;;6131478;23;20334;-88
2022/09/03 13:58:47;;;;;;;;;;;21.80;99.90;;;;;;6108015;23;19928;-88
2022/09/03 14:01:27;;;;;;;;;;;21.90;99.90;;;;;;6157338;23;20501;-89
2022/09/03 14:03:56;;;;;;;;;;;21.90;99.90;;;;;;6155669;23;19908;-90
2022/09/03 14:06:31;;;;;;;;;;;21.70;99.90;;;;;;6131958;23;19915;-88
2022/09/03 14:08:56;;;;;;;;;;;21.40;99.90;;;;;;6158608;23;19904;-87
2022/09/03 14:11:26;;;;;;;;;;;21.20;99.90;;;;;;6158351;23;19915;-89
2022/09/03 14:14:15;;;;;;;;;;;21.10;99.90;;;;;;6133371;23;19909;-90
2022/09/03 14:16:45;;;;;;;;;;;21.20;99.90;;;;;;6133333;23;19948;-89
2022/09/03 14:19:29;;;;;;;;;;;21.00;99.90;;;;;;6155975;23;19908;-88
2022/09/03 14:21:58;;;;;;;;;;;20.80;99.90;;;;;;6155768;23;19908;-88
2022/09/03 14:24:24;;;;;;;;;;;20.70;99.90;;;;;;6131295;23;19975;-88
2022/09/03 14:26:57;;;;;;;;;;;20.80;99.90;;;;;;6156061;23;19955;-88
2022/09/03 14:29:25;;;;;;;;;;;21.00;99.90;;;;;;6134580;23;20016;-89
2022/09/03 14:31:57;;;;;;;;;;;21.10;99.90;;;;;;6157969;23;19900;-88
2022/09/03 14:34:26;;;;;;;;;;;21.40;99.90;;;;;;6155963;23;19908;-88
2022/09/03 14:36:54;;;;;;;;;;;21.40;99.90;;;;;;6158651;23;19908;-88
2022/09/03 14:39:29;;;;;;;;;;;21.30;99.90;;;;;;6133653;23;19983;-89
2022/09/03 14:41:55;;;;;;;;;;;21.30;99.90;;;;;;6157164;23;20031;-88
2022/09/03 14:44:36;;;;;;;;;;;21.10;99.90;;;;;;6136605;23;20324;-90
2022/09/03 14:47:14;;;;;;;;;;;20.90;99.90;;;;;;6145817;23;19927;-89
2022/09/03 14:49:48;;;;;;;;;;;21.00;99.90;;;;;;6179154;23;19904;-89